sensor_id;sensor_type;location;lat;lon;timestamp;P1;durP1;ratioP1;P2;durP2;ratioP2
3601;SDS011;1815;50.950;6.920;2022-10-31T00:02:13;6.67;;;4.23;;
3601;SDS011;1815;50.950;6.920;2022-10-31T00:04:39;8.60;;;4.87;;
3601;SDS011;1815;50.950;6.920;2022-10-31T00:07:04;7.80;;;5.63;;
3601;SDS011;1815;50.950;6.920;2022-10-31T00:09:30;9.60;;;4.53;;
3601;SDS011;1815;50.950;6.920;2022-10-31T00:11:56;5.03;;;4.33;;
3601;SDS011;1815;50.950;6.920;2022-10-31T00:14:22;7.83;;;4.90;;
3601;SDS011;1815;50.950;6.920;2022-10-31T00:16:47;8.17;;;4.27;;
3601;SDS011;1815;50.950;6.920;2022-10-31T00:19:13;8.80;;;5.00;;
3601;SDS011;1815;50.950;6.920;2022-10-31T00:21:39;9.40;;;4.70;;
3601;SDS011;1815;50.950;6.920;2022-10-31T00:24:05;11.93;;;5.17;;
3601;SDS011;1815;50.950;6.920;2022-10-31T00:26:31;8.67;;;4.60;;
3601;SDS011;1815;50.950;6.920;2022-10-31T00:28:57;12.50;;;6.20;;
3601;SDS011;1815;50.950;6.920;2022-10-31T00:31:23;6.50;;;4.60;;
3601;SDS011;1815;50.950;6.920;2022-10-31T00:33:49;8.00;;;5.10;;
3601;SDS011;1815;50.950;6.920;2022-10-31T00:36:17;12.23;;;4.97;;
3601;SDS011;1815;50.950;6.920;2022-10-31T00:38:44;9.77;;;4.43;;
3601;SDS011;1815;50.950;6.920;2022-10-31T00:41:11;8.97;;;4.90;;
3601;SDS011;1815;50.950;6.920;2022-10-31T00:43:40;6.07;;;5.10;;
3601;SDS011;1815;50.950;6.920;2022-10-31T00:46:06;7.13;;;4.37;;
3601;SDS011;1815;50.950;6.920;2022-10-31T00:48:32;10.00;;;4.37;;
3601;SDS011;1815;50.950;6.920;2022-10-31T00:50:57;4.40;;;3.80;;
3601;SDS011;1815;50.950;6.920;2022-10-31T00:53:23;8.07;;;4.30;;
3601;SDS011;1815;50.950;6.920;2022-10-31T00:55:51;8.13;;;4.37;;
3601;SDS011;1815;50.950;6.920;2022-10-31T00:58:18;10.47;;;5.13;;
3601;SDS011;1815;50.950;6.920;2022-10-31T01:00:44;8.07;;;4.60;;
3601;SDS011;1815;50.950;6.920;2022-10-31T01:03:11;11.17;;;3.90;;
3601;SDS011;1815;50.950;6.920;2022-10-31T01:05:40;7.60;;;4.57;;
3601;SDS011;1815;50.950;6.920;2022-10-31T01:08:06;6.27;;;3.67;;
3601;SDS011;1815;50.950;6.920;2022-10-31T01:10:32;6.10;;;4.00;;
3601;SDS011;1815;50.950;6.920;2022-10-31T01:12:58;7.87;;;4.77;;
3601;SDS011;1815;50.950;6.920;2022-10-31T01:15:24;11.90;;;4.77;;
3601;SDS011;1815;50.950;6.920;2022-10-31T01:17:49;8.90;;;4.80;;
3601;SDS011;1815;50.950;6.920;2022-10-31T01:20:15;7.03;;;4.23;;
3601;SDS011;1815;50.950;6.920;2022-10-31T01:22:42;6.60;;;4.00;;
3601;SDS011;1815;50.950;6.920;2022-10-31T01:25:08;6.30;;;4.40;;
3601;SDS011;1815;50.950;6.920;2022-10-31T01:27:35;4.97;;;4.23;;
3601;SDS011;1815;50.950;6.920;2022-10-31T01:30:00;7.90;;;4.80;;
3601;SDS011;1815;50.950;6.920;2022-10-31T01:32:27;5.90;;;4.53;;
3601;SDS011;1815;50.950;6.920;2022-10-31T01:34:54;7.00;;;5.17;;
3601;SDS011;1815;50.950;6.920;2022-10-31T01:37:20;7.60;;;5.10;;
3601;SDS011;1815;50.950;6.920;2022-10-31T01:39:47;7.50;;;4.50;;
3601;SDS011;1815;50.950;6.920;2022-10-31T01:42:21;8.10;;;4.53;;
3601;SDS011;1815;50.950;6.920;2022-10-31T01:47:17;9.93;;;5.33;;
3601;SDS011;1815;50.950;6.920;2022-10-31T01:49:47;7.60;;;4.60;;
3601;SDS011;1815;50.950;6.920;2022-10-31T01:55:26;10.50;;;5.50;;
3601;SDS011;1815;50.950;6.920;2022-10-31T01:57:58;7.40;;;5.53;;
3601;SDS011;1815;50.950;6.920;2022-10-31T02:00:37;12.60;;;6.03;;
3601;SDS011;1815;50.950;6.920;2022-10-31T02:03:04;9.70;;;6.03;;
3601;SDS011;1815;50.950;6.920;2022-10-31T02:05:30;9.53;;;5.20;;
3601;SDS011;1815;50.950;6.920;2022-10-31T02:08:07;7.83;;;5.73;;
3601;SDS011;1815;50.950;6.920;2022-10-31T02:10:39;9.23;;;5.47;;
3601;SDS011;1815;50.950;6.920;2022-10-31T02:13:08;7.50;;;5.20;;
3601;SDS011;1815;50.950;6.920;2022-10-31T02:15:42;8.40;;;5.53;;
3601;SDS011;1815;50.950;6.920;2022-10-31T02:18:10;8.77;;;4.63;;
3601;SDS011;1815;50.950;6.920;2022-10-31T02:20:42;10.80;;;5.70;;
3601;SDS011;1815;50.950;6.920;2022-10-31T02:26:43;9.60;;;5.57;;
3601;SDS011;1815;50.950;6.920;2022-10-31T02:37:59;6.10;;;4.23;;
3601;SDS011;1815;50.950;6.920;2022-10-31T02:40:27;7.63;;;5.03;;
3601;SDS011;1815;50.950;6.920;2022-10-31T02:43:27;6.57;;;4.60;;
3601;SDS011;1815;50.950;6.920;2022-10-31T02:46:02;5.10;;;3.70;;
3601;SDS011;1815;50.950;6.920;2022-10-31T02:48:36;5.53;;;4.63;;
3601;SDS011;1815;50.950;6.920;2022-10-31T02:51:05;8.27;;;5.53;;
3601;SDS011;1815;50.950;6.920;2022-10-31T02:53:36;7.63;;;4.57;;
3601;SDS011;1815;50.950;6.920;2022-10-31T02:56:16;6.50;;;4.80;;
3601;SDS011;1815;50.950;6.920;2022-10-31T02:58:46;10.13;;;5.33;;
3601;SDS011;1815;50.950;6.920;2022-10-31T03:01:29;6.30;;;4.13;;
3601;SDS011;1815;50.950;6.920;2022-10-31T03:06:56;7.93;;;4.47;;
3601;SDS011;1815;50.950;6.920;2022-10-31T03:12:28;7.53;;;4.50;;
3601;SDS011;1815;50.950;6.920;2022-10-31T03:17:54;6.70;;;4.63;;
3601;SDS011;1815;50.950;6.920;2022-10-31T03:20:34;8.10;;;5.10;;
3601;SDS011;1815;50.950;6.920;2022-10-31T03:23:09;8.07;;;3.90;;
3601;SDS011;1815;50.950;6.920;2022-10-31T03:25:38;6.93;;;4.47;;
3601;SDS011;1815;50.950;6.920;2022-10-31T03:28:07;9.60;;;4.67;;
3601;SDS011;1815;50.950;6.920;2022-10-31T03:30:36;9.43;;;5.30;;
3601;SDS011;1815;50.950;6.920;2022-10-31T03:33:07;10.23;;;4.57;;
3601;SDS011;1815;50.950;6.920;2022-10-31T03:35:39;8.70;;;4.77;;
3601;SDS011;1815;50.950;6.920;2022-10-31T03:38:07;7.30;;;4.47;;
3601;SDS011;1815;50.950;6.920;2022-10-31T03:40:35;7.90;;;4.80;;
3601;SDS011;1815;50.950;6.920;2022-10-31T03:43:05;7.80;;;4.90;;
3601;SDS011;1815;50.950;6.920;2022-10-31T03:45:36;6.30;;;4.73;;
3601;SDS011;1815;50.950;6.920;2022-10-31T03:48:06;4.70;;;4.20;;
3601;SDS011;1815;50.950;6.920;2022-10-31T03:50:36;6.03;;;4.30;;
3601;SDS011;1815;50.950;6.920;2022-10-31T03:53:08;5.80;;;3.67;;
3601;SDS011;1815;50.950;6.920;2022-10-31T03:55:47;6.80;;;4.80;;
3601;SDS011;1815;50.950;6.920;2022-10-31T03:58:32;9.90;;;4.00;;
3601;SDS011;1815;50.950;6.920;2022-10-31T04:01:03;7.57;;;5.17;;
3601;SDS011;1815;50.950;6.920;2022-10-31T04:03:35;6.50;;;4.40;;
3601;SDS011;1815;50.950;6.920;2022-10-31T04:06:05;6.57;;;4.40;;
3601;SDS011;1815;50.950;6.920;2022-10-31T04:08:43;5.77;;;3.90;;
3601;SDS011;1815;50.950;6.920;2022-10-31T04:11:16;6.33;;;4.00;;
3601;SDS011;1815;50.950;6.920;2022-10-31T04:13:57;8.97;;;4.30;;
3601;SDS011;1815;50.950;6.920;2022-10-31T04:16:26;9.37;;;4.40;;
3601;SDS011;1815;50.950;6.920;2022-10-31T04:18:52;6.70;;;5.17;;
3601;SDS011;1815;50.950;6.920;2022-10-31T04:21:18;7.43;;;4.90;;
3601;SDS011;1815;50.950;6.920;2022-10-31T04:23:44;6.63;;;4.83;;
3601;SDS011;1815;50.950;6.920;2022-10-31T04:26:17;5.93;;;4.70;;
3601;SDS011;1815;50.950;6.920;2022-10-31T04:28:43;8.07;;;4.60;;
3601;SDS011;1815;50.950;6.920;2022-10-31T04:31:10;6.07;;;4.57;;
3601;SDS011;1815;50.950;6.920;2022-10-31T04:33:37;8.43;;;4.97;;
3601;SDS011;1815;50.950;6.920;2022-10-31T04:36:03;9.83;;;4.90;;
3601;SDS011;1815;50.950;6.920;2022-10-31T04:38:30;10.33;;;4.40;;
3601;SDS011;1815;50.950;6.920;2022-10-31T04:40:57;7.63;;;4.57;;
3601;SDS011;1815;50.950;6.920;2022-10-31T04:43:41;5.20;;;4.20;;
3601;SDS011;1815;50.950;6.920;2022-10-31T04:46:07;9.20;;;4.60;;
3601;SDS011;1815;50.950;6.920;2022-10-31T04:48:32;6.27;;;4.20;;
3601;SDS011;1815;50.950;6.920;2022-10-31T04:50:59;7.13;;;4.73;;
3601;SDS011;1815;50.950;6.920;2022-10-31T04:53:26;8.50;;;6.07;;
3601;SDS011;1815;50.950;6.920;2022-10-31T04:56:25;8.67;;;4.53;;
3601;SDS011;1815;50.950;6.920;2022-10-31T04:58:55;6.27;;;4.57;;
3601;SDS011;1815;50.950;6.920;2022-10-31T05:01:23;5.60;;;4.30;;
3601;SDS011;1815;50.950;6.920;2022-10-31T05:03:49;6.90;;;5.33;;
3601;SDS011;1815;50.950;6.920;2022-10-31T05:06:15;5.60;;;3.80;;
3601;SDS011;1815;50.950;6.920;2022-10-31T05:08:42;10.67;;;5.33;;
3601;SDS011;1815;50.950;6.920;2022-10-31T05:11:09;7.30;;;4.40;;
3601;SDS011;1815;50.950;6.920;2022-10-31T05:13:36;9.87;;;4.70;;
3601;SDS011;1815;50.950;6.920;2022-10-31T05:16:10;8.00;;;4.77;;
3601;SDS011;1815;50.950;6.920;2022-10-31T05:18:55;10.13;;;4.53;;
3601;SDS011;1815;50.950;6.920;2022-10-31T05:21:46;11.17;;;5.10;;
3601;SDS011;1815;50.950;6.920;2022-10-31T05:24:12;6.10;;;4.00;;
3601;SDS011;1815;50.950;6.920;2022-10-31T05:26:40;10.87;;;5.53;;
3601;SDS011;1815;50.950;6.920;2022-10-31T05:29:05;6.47;;;4.43;;
3601;SDS011;1815;50.950;6.920;2022-10-31T05:31:31;6.00;;;4.47;;
3601;SDS011;1815;50.950;6.920;2022-10-31T05:33:57;8.90;;;5.20;;
3601;SDS011;1815;50.950;6.920;2022-10-31T05:36:46;10.93;;;5.90;;
3601;SDS011;1815;50.950;6.920;2022-10-31T05:39:16;6.73;;;4.87;;
3601;SDS011;1815;50.950;6.920;2022-10-31T05:41:46;9.73;;;5.10;;
3601;SDS011;1815;50.950;6.920;2022-10-31T05:44:16;9.20;;;5.80;;
3601;SDS011;1815;50.950;6.920;2022-10-31T05:47:07;8.00;;;4.73;;
3601;SDS011;1815;50.950;6.920;2022-10-31T05:49:52;11.67;;;5.80;;
3601;SDS011;1815;50.950;6.920;2022-10-31T05:52:43;7.03;;;5.85;;
3601;SDS011;1815;50.950;6.920;2022-10-31T05:55:18;6.47;;;5.70;;
3601;SDS011;1815;50.950;6.920;2022-10-31T05:58:00;6.20;;;4.60;;
3601;SDS011;1815;50.950;6.920;2022-10-31T06:00:27;8.40;;;5.07;;
3601;SDS011;1815;50.950;6.920;2022-10-31T06:03:03;6.60;;;4.97;;
3601;SDS011;1815;50.950;6.920;2022-10-31T06:05:41;8.10;;;4.90;;
3601;SDS011;1815;50.950;6.920;2022-10-31T06:08:07;7.10;;;4.20;;
3601;SDS011;1815;50.950;6.920;2022-10-31T06:10:33;6.00;;;4.00;;
3601;SDS011;1815;50.950;6.920;2022-10-31T06:12:59;9.93;;;4.40;;
3601;SDS011;1815;50.950;6.920;2022-10-31T06:15:41;7.50;;;4.10;;
3601;SDS011;1815;50.950;6.920;2022-10-31T06:18:07;7.63;;;4.87;;
3601;SDS011;1815;50.950;6.920;2022-10-31T06:20:42;9.40;;;4.60;;
3601;SDS011;1815;50.950;6.920;2022-10-31T06:23:09;7.60;;;4.75;;
3601;SDS011;1815;50.950;6.920;2022-10-31T06:25:36;7.00;;;4.30;;
3601;SDS011;1815;50.950;6.920;2022-10-31T06:28:03;7.03;;;4.30;;
3601;SDS011;1815;50.950;6.920;2022-10-31T06:30:52;8.33;;;4.87;;
3601;SDS011;1815;50.950;6.920;2022-10-31T06:33:18;8.43;;;4.37;;
3601;SDS011;1815;50.950;6.920;2022-10-31T06:35:54;7.43;;;4.40;;
3601;SDS011;1815;50.950;6.920;2022-10-31T06:38:20;6.47;;;4.80;;
3601;SDS011;1815;50.950;6.920;2022-10-31T06:40:46;6.87;;;4.93;;
3601;SDS011;1815;50.950;6.920;2022-10-31T06:43:23;8.03;;;4.90;;
3601;SDS011;1815;50.950;6.920;2022-10-31T06:46:01;7.20;;;4.57;;
3601;SDS011;1815;50.950;6.920;2022-10-31T06:48:42;6.73;;;5.00;;
3601;SDS011;1815;50.950;6.920;2022-10-31T06:51:18;9.50;;;5.00;;
3601;SDS011;1815;50.950;6.920;2022-10-31T06:53:45;5.53;;;4.40;;
3601;SDS011;1815;50.950;6.920;2022-10-31T06:56:12;7.60;;;5.20;;
3601;SDS011;1815;50.950;6.920;2022-10-31T06:58:54;13.40;;;4.93;;
3601;SDS011;1815;50.950;6.920;2022-10-31T07:01:35;10.17;;;5.20;;
3601;SDS011;1815;50.950;6.920;2022-10-31T07:04:01;9.17;;;5.20;;
3601;SDS011;1815;50.950;6.920;2022-10-31T07:06:30;7.73;;;4.07;;
3601;SDS011;1815;50.950;6.920;2022-10-31T07:08:56;6.77;;;4.37;;
3601;SDS011;1815;50.950;6.920;2022-10-31T07:11:22;10.70;;;4.83;;
3601;SDS011;1815;50.950;6.920;2022-10-31T07:13:48;8.67;;;4.53;;
3601;SDS011;1815;50.950;6.920;2022-10-31T07:16:14;8.30;;;4.60;;
3601;SDS011;1815;50.950;6.920;2022-10-31T07:18:41;13.43;;;4.60;;
3601;SDS011;1815;50.950;6.920;2022-10-31T07:21:07;6.67;;;4.70;;
3601;SDS011;1815;50.950;6.920;2022-10-31T07:23:33;9.33;;;4.70;;
3601;SDS011;1815;50.950;6.920;2022-10-31T07:26:19;10.90;;;5.20;;
3601;SDS011;1815;50.950;6.920;2022-10-31T07:28:46;8.30;;;4.17;;
3601;SDS011;1815;50.950;6.920;2022-10-31T07:31:14;10.10;;;5.63;;
3601;SDS011;1815;50.950;6.920;2022-10-31T07:33:40;6.23;;;4.50;;
3601;SDS011;1815;50.950;6.920;2022-10-31T07:36:34;9.00;;;5.40;;
3601;SDS011;1815;50.950;6.920;2022-10-31T07:39:02;8.80;;;4.50;;
3601;SDS011;1815;50.950;6.920;2022-10-31T07:41:30;11.77;;;5.20;;
3601;SDS011;1815;50.950;6.920;2022-10-31T07:43:56;7.27;;;4.13;;
3601;SDS011;1815;50.950;6.920;2022-10-31T07:46:40;6.50;;;4.00;;
3601;SDS011;1815;50.950;6.920;2022-10-31T07:49:24;8.23;;;4.43;;
3601;SDS011;1815;50.950;6.920;2022-10-31T07:52:02;5.33;;;4.10;;
3601;SDS011;1815;50.950;6.920;2022-10-31T07:54:51;7.33;;;4.37;;
3601;SDS011;1815;50.950;6.920;2022-10-31T07:57:22;8.70;;;4.37;;
3601;SDS011;1815;50.950;6.920;2022-10-31T07:59:48;10.67;;;4.87;;
3601;SDS011;1815;50.950;6.920;2022-10-31T08:02:16;7.97;;;4.70;;
3601;SDS011;1815;50.950;6.920;2022-10-31T08:05:01;7.37;;;4.60;;
3601;SDS011;1815;50.950;6.920;2022-10-31T08:08:03;7.33;;;5.20;;
3601;SDS011;1815;50.950;6.920;2022-10-31T08:10:30;6.70;;;4.87;;
3601;SDS011;1815;50.950;6.920;2022-10-31T08:12:58;8.20;;;5.57;;
3601;SDS011;1815;50.950;6.920;2022-10-31T08:15:34;9.33;;;5.40;;
3601;SDS011;1815;50.950;6.920;2022-10-31T08:18:03;10.03;;;5.40;;
3601;SDS011;1815;50.950;6.920;2022-10-31T08:20:36;10.87;;;4.97;;
3601;SDS011;1815;50.950;6.920;2022-10-31T08:23:03;7.97;;;5.00;;
3601;SDS011;1815;50.950;6.920;2022-10-31T08:25:33;8.60;;;5.30;;
3601;SDS011;1815;50.950;6.920;2022-10-31T08:28:00;6.23;;;5.17;;
3601;SDS011;1815;50.950;6.920;2022-10-31T08:30:28;10.40;;;5.83;;
3601;SDS011;1815;50.950;6.920;2022-10-31T08:33:34;9.97;;;4.73;;
3601;SDS011;1815;50.950;6.920;2022-10-31T08:36:26;5.87;;;4.70;;
3601;SDS011;1815;50.950;6.920;2022-10-31T08:39:16;6.50;;;4.60;;
3601;SDS011;1815;50.950;6.920;2022-10-31T08:41:42;7.73;;;4.83;;
3601;SDS011;1815;50.950;6.920;2022-10-31T08:44:11;6.30;;;5.00;;
3601;SDS011;1815;50.950;6.920;2022-10-31T08:46:37;5.83;;;4.53;;
3601;SDS011;1815;50.950;6.920;2022-10-31T08:49:03;6.50;;;4.53;;
3601;SDS011;1815;50.950;6.920;2022-10-31T08:51:31;8.93;;;3.97;;
3601;SDS011;1815;50.950;6.920;2022-10-31T08:53:57;9.27;;;5.00;;
3601;SDS011;1815;50.950;6.920;2022-10-31T08:56:31;13.67;;;5.73;;
3601;SDS011;1815;50.950;6.920;2022-10-31T08:58:58;10.57;;;5.00;;
3601;SDS011;1815;50.950;6.920;2022-10-31T09:01:59;9.10;;;4.67;;
3601;SDS011;1815;50.950;6.920;2022-10-31T09:04:26;7.87;;;6.07;;
3601;SDS011;1815;50.950;6.920;2022-10-31T09:06:52;9.17;;;4.97;;
3601;SDS011;1815;50.950;6.920;2022-10-31T09:09:18;7.87;;;4.77;;
3601;SDS011;1815;50.950;6.920;2022-10-31T09:11:45;12.23;;;5.90;;
3601;SDS011;1815;50.950;6.920;2022-10-31T09:14:11;11.20;;;5.10;;
3601;SDS011;1815;50.950;6.920;2022-10-31T09:16:55;7.17;;;4.23;;
3601;SDS011;1815;50.950;6.920;2022-10-31T09:19:28;6.63;;;4.10;;
3601;SDS011;1815;50.950;6.920;2022-10-31T09:21:54;9.13;;;5.23;;
3601;SDS011;1815;50.950;6.920;2022-10-31T09:24:21;7.60;;;5.13;;
3601;SDS011;1815;50.950;6.920;2022-10-31T09:26:47;11.03;;;4.60;;
3601;SDS011;1815;50.950;6.920;2022-10-31T09:29:19;6.90;;;5.07;;
3601;SDS011;1815;50.950;6.920;2022-10-31T09:32:06;6.97;;;4.80;;
3601;SDS011;1815;50.950;6.920;2022-10-31T09:34:38;7.73;;;5.50;;
3601;SDS011;1815;50.950;6.920;2022-10-31T09:37:07;7.80;;;4.70;;
3601;SDS011;1815;50.950;6.920;2022-10-31T09:39:34;9.90;;;5.13;;
3601;SDS011;1815;50.950;6.920;2022-10-31T09:45:04;7.67;;;4.87;;
3601;SDS011;1815;50.950;6.920;2022-10-31T09:47:59;8.20;;;5.60;;
3601;SDS011;1815;50.950;6.920;2022-10-31T09:51:05;7.73;;;5.90;;
3601;SDS011;1815;50.950;6.920;2022-10-31T09:53:37;8.70;;;5.60;;
3601;SDS011;1815;50.950;6.920;2022-10-31T09:56:13;11.20;;;5.80;;
3601;SDS011;1815;50.950;6.920;2022-10-31T09:58:43;5.63;;;4.80;;
3601;SDS011;1815;50.950;6.920;2022-10-31T10:01:20;7.43;;;4.90;;
3601;SDS011;1815;50.950;6.920;2022-10-31T10:04:16;7.30;;;4.40;;
3601;SDS011;1815;50.950;6.920;2022-10-31T10:07:00;7.90;;;5.07;;
3601;SDS011;1815;50.950;6.920;2022-10-31T10:09:56;12.57;;;4.77;;
3601;SDS011;1815;50.950;6.920;2022-10-31T10:15:24;9.20;;;4.17;;
3601;SDS011;1815;50.950;6.920;2022-10-31T10:24:09;8.73;;;4.70;;
3601;SDS011;1815;50.950;6.920;2022-10-31T10:26:49;8.33;;;5.00;;
3601;SDS011;1815;50.950;6.920;2022-10-31T10:29:42;9.20;;;4.90;;
3601;SDS011;1815;50.950;6.920;2022-10-31T10:32:26;10.73;;;5.03;;
3601;SDS011;1815;50.950;6.920;2022-10-31T10:34:59;8.23;;;4.67;;
3601;SDS011;1815;50.950;6.920;2022-10-31T10:37:38;7.33;;;5.33;;
3601;SDS011;1815;50.950;6.920;2022-10-31T10:40:13;12.20;;;5.47;;
3601;SDS011;1815;50.950;6.920;2022-10-31T10:46:05;10.90;;;4.57;;
3601;SDS011;1815;50.950;6.920;2022-10-31T10:49:02;5.97;;;4.20;;
3601;SDS011;1815;50.950;6.920;2022-10-31T10:56:56;9.10;;;4.37;;
3601;SDS011;1815;50.950;6.920;2022-10-31T10:59:23;6.97;;;4.43;;
3601;SDS011;1815;50.950;6.920;2022-10-31T11:01:51;8.97;;;3.70;;
3601;SDS011;1815;50.950;6.920;2022-10-31T11:07:01;5.63;;;3.60;;
3601;SDS011;1815;50.950;6.920;2022-10-31T11:09:27;6.50;;;4.00;;
3601;SDS011;1815;50.950;6.920;2022-10-31T11:11:53;10.17;;;4.40;;
3601;SDS011;1815;50.950;6.920;2022-10-31T11:14:20;16.83;;;5.50;;
3601;SDS011;1815;50.950;6.920;2022-10-31T11:16:49;10.13;;;4.40;;
3601;SDS011;1815;50.950;6.920;2022-10-31T11:19:27;7.80;;;4.80;;
3601;SDS011;1815;50.950;6.920;2022-10-31T11:21:54;8.20;;;4.07;;
3601;SDS011;1815;50.950;6.920;2022-10-31T11:24:35;10.90;;;4.30;;
3601;SDS011;1815;50.950;6.920;2022-10-31T11:27:16;6.47;;;3.67;;
3601;SDS011;1815;50.950;6.920;2022-10-31T11:29:46;5.63;;;3.47;;
3601;SDS011;1815;50.950;6.920;2022-10-31T11:32:22;7.20;;;4.30;;
3601;SDS011;1815;50.950;6.920;2022-10-31T11:35:10;4.67;;;3.30;;
3601;SDS011;1815;50.950;6.920;2022-10-31T11:37:40;6.50;;;2.53;;
3601;SDS011;1815;50.950;6.920;2022-10-31T11:40:19;6.20;;;2.87;;
3601;SDS011;1815;50.950;6.920;2022-10-31T11:42:47;6.37;;;3.13;;
3601;SDS011;1815;50.950;6.920;2022-10-31T11:45:17;7.77;;;4.47;;
3601;SDS011;1815;50.950;6.920;2022-10-31T11:47:49;7.10;;;3.70;;
3601;SDS011;1815;50.950;6.920;2022-10-31T11:50:59;8.13;;;3.47;;
3601;SDS011;1815;50.950;6.920;2022-10-31T11:53:12;5.17;;;3.13;;
3601;SDS011;1815;50.950;6.920;2022-10-31T11:56:03;9.43;;;4.13;;
3601;SDS011;1815;50.950;6.920;2022-10-31T11:58:31;4.80;;;3.33;;
3601;SDS011;1815;50.950;6.920;2022-10-31T12:00:59;6.03;;;4.10;;
3601;SDS011;1815;50.950;6.920;2022-10-31T12:03:43;8.13;;;3.97;;
3601;SDS011;1815;50.950;6.920;2022-10-31T12:06:32;6.27;;;3.43;;
3601;SDS011;1815;50.950;6.920;2022-10-31T12:09:00;6.53;;;3.53;;
3601;SDS011;1815;50.950;6.920;2022-10-31T12:13:59;6.57;;;4.03;;
3601;SDS011;1815;50.950;6.920;2022-10-31T12:19:20;6.00;;;2.97;;
3601;SDS011;1815;50.950;6.920;2022-10-31T12:21:53;4.03;;;2.90;;
3601;SDS011;1815;50.950;6.920;2022-10-31T12:39:30;5.03;;;3.77;;
3601;SDS011;1815;50.950;6.920;2022-10-31T12:48:00;5.93;;;3.00;;
3601;SDS011;1815;50.950;6.920;2022-10-31T12:50:52;8.30;;;2.73;;
3601;SDS011;1815;50.950;6.920;2022-10-31T12:56:14;10.07;;;4.23;;
3601;SDS011;1815;50.950;6.920;2022-10-31T12:58:53;6.87;;;3.20;;
3601;SDS011;1815;50.950;6.920;2022-10-31T13:01:27;8.53;;;4.03;;
3601;SDS011;1815;50.950;6.920;2022-10-31T13:06:48;13.27;;;3.70;;
3601;SDS011;1815;50.950;6.920;2022-10-31T13:09:23;6.13;;;2.70;;
3601;SDS011;1815;50.950;6.920;2022-10-31T13:11:56;8.57;;;3.13;;
3601;SDS011;1815;50.950;6.920;2022-10-31T13:14:30;6.30;;;2.63;;
3601;SDS011;1815;50.950;6.920;2022-10-31T13:17:00;7.50;;;2.60;;
3601;SDS011;1815;50.950;6.920;2022-10-31T13:19:37;5.63;;;2.60;;
3601;SDS011;1815;50.950;6.920;2022-10-31T13:22:08;4.80;;;2.33;;
3601;SDS011;1815;50.950;6.920;2022-10-31T13:30:36;4.93;;;2.70;;
3601;SDS011;1815;50.950;6.920;2022-10-31T13:46:51;3.77;;;2.43;;
3601;SDS011;1815;50.950;6.920;2022-10-31T13:51:53;8.83;;;3.30;;
3601;SDS011;1815;50.950;6.920;2022-10-31T13:54:36;5.90;;;2.57;;
3601;SDS011;1815;50.950;6.920;2022-10-31T13:57:17;7.80;;;3.63;;
3601;SDS011;1815;50.950;6.920;2022-10-31T13:59:51;4.90;;;2.90;;
3601;SDS011;1815;50.950;6.920;2022-10-31T14:02:26;6.33;;;3.47;;
3601;SDS011;1815;50.950;6.920;2022-10-31T14:05:04;5.27;;;3.10;;
3601;SDS011;1815;50.950;6.920;2022-10-31T14:07:43;7.90;;;3.70;;
3601;SDS011;1815;50.950;6.920;2022-10-31T14:10:21;8.33;;;3.30;;
3601;SDS011;1815;50.950;6.920;2022-10-31T14:12:47;6.67;;;4.20;;
3601;SDS011;1815;50.950;6.920;2022-10-31T14:15:20;4.43;;;2.60;;
3601;SDS011;1815;50.950;6.920;2022-10-31T14:17:59;5.00;;;2.47;;
3601;SDS011;1815;50.950;6.920;2022-10-31T14:22:58;5.50;;;3.40;;
3601;SDS011;1815;50.950;6.920;2022-10-31T14:28:18;9.90;;;3.03;;
3601;SDS011;1815;50.950;6.920;2022-10-31T14:31:21;6.10;;;2.80;;
3601;SDS011;1815;50.950;6.920;2022-10-31T14:36:59;5.57;;;3.30;;
3601;SDS011;1815;50.950;6.920;2022-10-31T14:50:53;8.67;;;3.50;;
3601;SDS011;1815;50.950;6.920;2022-10-31T14:53:29;9.20;;;3.87;;
3601;SDS011;1815;50.950;6.920;2022-10-31T14:56:14;4.73;;;2.60;;
3601;SDS011;1815;50.950;6.920;2022-10-31T14:58:46;8.90;;;4.00;;
3601;SDS011;1815;50.950;6.920;2022-10-31T15:01:26;6.23;;;4.20;;
3601;SDS011;1815;50.950;6.920;2022-10-31T15:04:04;12.73;;;3.30;;
3601;SDS011;1815;50.950;6.920;2022-10-31T15:06:43;5.47;;;2.47;;
3601;SDS011;1815;50.950;6.920;2022-10-31T15:09:23;7.50;;;3.33;;
3601;SDS011;1815;50.950;6.920;2022-10-31T15:11:50;5.10;;;3.10;;
3601;SDS011;1815;50.950;6.920;2022-10-31T15:14:26;7.33;;;3.70;;
3601;SDS011;1815;50.950;6.920;2022-10-31T15:16:56;7.00;;;3.60;;
3601;SDS011;1815;50.950;6.920;2022-10-31T15:19:29;7.43;;;2.57;;
3601;SDS011;1815;50.950;6.920;2022-10-31T15:21:57;9.07;;;4.70;;
3601;SDS011;1815;50.950;6.920;2022-10-31T15:24:29;8.77;;;3.37;;
3601;SDS011;1815;50.950;6.920;2022-10-31T15:26:58;6.13;;;2.80;;
3601;SDS011;1815;50.950;6.920;2022-10-31T15:29:25;5.17;;;2.50;;
3601;SDS011;1815;50.950;6.920;2022-10-31T15:31:54;9.13;;;3.53;;
3601;SDS011;1815;50.950;6.920;2022-10-31T15:34:26;8.13;;;2.33;;
3601;SDS011;1815;50.950;6.920;2022-10-31T15:37:01;7.87;;;3.40;;
3601;SDS011;1815;50.950;6.920;2022-10-31T15:39:27;7.20;;;2.60;;
3601;SDS011;1815;50.950;6.920;2022-10-31T15:41:54;9.57;;;3.20;;
3601;SDS011;1815;50.950;6.920;2022-10-31T15:44:23;6.20;;;3.03;;
3601;SDS011;1815;50.950;6.920;2022-10-31T15:46:52;6.13;;;2.50;;
3601;SDS011;1815;50.950;6.920;2022-10-31T15:49:31;6.33;;;2.70;;
3601;SDS011;1815;50.950;6.920;2022-10-31T15:52:00;8.20;;;3.77;;
3601;SDS011;1815;50.950;6.920;2022-10-31T15:54:33;7.23;;;3.80;;
3601;SDS011;1815;50.950;6.920;2022-10-31T15:57:00;6.90;;;2.73;;
3601;SDS011;1815;50.950;6.920;2022-10-31T15:59:26;6.80;;;2.80;;
3601;SDS011;1815;50.950;6.920;2022-10-31T16:02:01;7.07;;;2.57;;
3601;SDS011;1815;50.950;6.920;2022-10-31T16:04:33;7.90;;;2.50;;
3601;SDS011;1815;50.950;6.920;2022-10-31T16:07:17;6.73;;;2.83;;
3601;SDS011;1815;50.950;6.920;2022-10-31T16:12:29;6.73;;;2.93;;
3601;SDS011;1815;50.950;6.920;2022-10-31T16:15:01;7.23;;;3.60;;
3601;SDS011;1815;50.950;6.920;2022-10-31T16:17:28;5.37;;;3.30;;
3601;SDS011;1815;50.950;6.920;2022-10-31T16:22:31;6.63;;;2.70;;
3601;SDS011;1815;50.950;6.920;2022-10-31T16:25:04;7.17;;;3.73;;
3601;SDS011;1815;50.950;6.920;2022-10-31T16:27:47;7.70;;;4.50;;
3601;SDS011;1815;50.950;6.920;2022-10-31T16:36:01;6.73;;;3.03;;
3601;SDS011;1815;50.950;6.920;2022-10-31T16:38:55;5.50;;;2.80;;
3601;SDS011;1815;50.950;6.920;2022-10-31T16:41:22;6.37;;;3.43;;
3601;SDS011;1815;50.950;6.920;2022-10-31T16:43:48;6.70;;;3.90;;
3601;SDS011;1815;50.950;6.920;2022-10-31T16:46:21;12.50;;;4.13;;
3601;SDS011;1815;50.950;6.920;2022-10-31T16:48:48;6.80;;;4.03;;
3601;SDS011;1815;50.950;6.920;2022-10-31T16:51:15;9.40;;;3.27;;
3601;SDS011;1815;50.950;6.920;2022-10-31T16:53:40;7.50;;;3.40;;
3601;SDS011;1815;50.950;6.920;2022-10-31T16:56:11;11.30;;;3.17;;
3601;SDS011;1815;50.950;6.920;2022-10-31T16:58:42;9.13;;;3.40;;
3601;SDS011;1815;50.950;6.920;2022-10-31T17:01:09;7.97;;;4.07;;
3601;SDS011;1815;50.950;6.920;2022-10-31T17:03:37;12.10;;;4.33;;
3601;SDS011;1815;50.950;6.920;2022-10-31T17:06:03;6.17;;;3.83;;
3601;SDS011;1815;50.950;6.920;2022-10-31T17:08:29;9.00;;;4.93;;
3601;SDS011;1815;50.950;6.920;2022-10-31T17:10:55;12.30;;;4.67;;
3601;SDS011;1815;50.950;6.920;2022-10-31T17:13:24;6.07;;;4.70;;
3601;SDS011;1815;50.950;6.920;2022-10-31T17:15:53;5.93;;;3.50;;
3601;SDS011;1815;50.950;6.920;2022-10-31T17:18:20;11.50;;;5.37;;
3601;SDS011;1815;50.950;6.920;2022-10-31T17:20:47;9.70;;;4.70;;
3601;SDS011;1815;50.950;6.920;2022-10-31T17:23:14;6.27;;;4.30;;
3601;SDS011;1815;50.950;6.920;2022-10-31T17:25:41;8.17;;;4.10;;
3601;SDS011;1815;50.950;6.920;2022-10-31T17:28:11;11.07;;;6.87;;
3601;SDS011;1815;50.950;6.920;2022-10-31T17:30:39;10.80;;;6.20;;
3601;SDS011;1815;50.950;6.920;2022-10-31T17:33:06;8.83;;;5.80;;
3601;SDS011;1815;50.950;6.920;2022-10-31T17:35:36;12.23;;;5.80;;
3601;SDS011;1815;50.950;6.920;2022-10-31T17:38:01;9.40;;;3.40;;
3601;SDS011;1815;50.950;6.920;2022-10-31T17:40:27;9.70;;;4.37;;
3601;SDS011;1815;50.950;6.920;2022-10-31T17:42:53;6.73;;;3.93;;
3601;SDS011;1815;50.950;6.920;2022-10-31T17:45:21;7.00;;;4.50;;
3601;SDS011;1815;50.950;6.920;2022-10-31T17:47:49;11.20;;;6.73;;
3601;SDS011;1815;50.950;6.920;2022-10-31T17:50:16;11.00;;;7.00;;
3601;SDS011;1815;50.950;6.920;2022-10-31T17:52:43;6.87;;;4.60;;
3601;SDS011;1815;50.950;6.920;2022-10-31T17:55:10;7.80;;;3.73;;
3601;SDS011;1815;50.950;6.920;2022-10-31T17:57:36;8.47;;;3.90;;
3601;SDS011;1815;50.950;6.920;2022-10-31T18:00:03;6.00;;;3.33;;